createdAt,value
2023-05-05T00:00:33.060Z,2.67
2023-05-05T00:03:35.955Z,2.53
2023-05-05T00:06:38.430Z,2.60
2023-05-05T00:09:41.518Z,2.80
2023-05-05T00:12:43.943Z,2.37
2023-05-05T00:15:48.922Z,2.50
2023-05-05T00:18:51.444Z,2.85
2023-05-05T00:21:54.036Z,2.72
2023-05-05T00:24:56.339Z,2.70
2023-05-05T00:27:59.033Z,2.50
2023-05-05T00:31:01.808Z,2.42
2023-05-05T00:34:04.611Z,2.45
2023-05-05T00:37:07.328Z,2.78
2023-05-05T00:40:12.724Z,2.72
2023-05-05T00:43:15.437Z,2.70
2023-05-05T00:46:26.571Z,2.60
2023-05-05T00:49:29.748Z,2.80
2023-05-05T00:52:32.601Z,2.60
2023-05-05T00:55:35.372Z,2.37
2023-05-05T00:58:39.523Z,2.90
2023-05-05T01:04:44.366Z,2.55
2023-05-05T01:08:02.991Z,2.62
2023-05-05T01:11:24.668Z,2.95
2023-05-05T01:15:01.357Z,2.50
2023-05-05T01:18:19.593Z,2.42
2023-05-05T01:21:23.398Z,2.70
2023-05-05T01:24:54.645Z,2.53
2023-05-05T01:28:29.474Z,2.47
2023-05-05T01:31:43.958Z,2.47
2023-05-05T01:35:02.175Z,2.75
2023-05-05T01:38:11.931Z,2.72
2023-05-05T01:41:19.937Z,2.42
2023-05-05T01:44:22.862Z,2.72
2023-05-05T01:47:26.278Z,2.50
2023-05-05T01:50:29.383Z,2.90
2023-05-05T01:56:40.259Z,2.22
2023-05-05T01:59:43.514Z,2.65
2023-05-05T02:02:49.376Z,2.50
2023-05-05T02:05:53.968Z,2.58
2023-05-05T02:08:58.374Z,2.92
2023-05-05T02:12:02.362Z,2.42
2023-05-05T02:15:05.406Z,2.92
2023-05-05T02:18:09.497Z,2.80
2023-05-05T02:24:14.328Z,2.72
2023-05-05T02:27:20.504Z,2.30
2023-05-05T02:30:25.174Z,3.12
2023-05-05T02:33:32.976Z,2.62
2023-05-05T02:36:39.553Z,2.85
2023-05-05T02:39:58.413Z,2.80
2023-05-05T02:43:06.533Z,2.80
2023-05-05T02:46:09.416Z,2.65
2023-05-05T02:49:12.655Z,2.80
2023-05-05T02:52:15.458Z,2.85
2023-05-05T02:55:18.827Z,2.60
2023-05-05T02:58:29.815Z,2.78
2023-05-05T03:02:11.655Z,2.75
2023-05-05T03:05:21.258Z,2.90
2023-05-05T03:08:42.785Z,2.75
2023-05-05T03:11:54.765Z,2.80
2023-05-05T03:14:59.030Z,2.65
2023-05-05T03:18:04.466Z,2.90
2023-05-05T03:21:08.922Z,2.78
2023-05-05T03:24:16.185Z,3.17
2023-05-05T03:27:20.489Z,2.87
2023-05-05T03:30:22.885Z,3.22
2023-05-05T03:33:26.351Z,3.10
2023-05-05T03:36:30.680Z,3.47
2023-05-05T03:39:33.610Z,3.30
2023-05-05T03:42:36.192Z,3.17
2023-05-05T03:45:39.179Z,3.55
2023-05-05T03:48:42.197Z,3.40
2023-05-05T03:51:44.972Z,3.30
2023-05-05T03:54:47.414Z,3.22
2023-05-05T03:57:50.081Z,3.40
2023-05-05T04:00:52.616Z,3.85
2023-05-05T04:03:56.448Z,3.77
2023-05-05T04:06:58.894Z,4.03
2023-05-05T04:10:01.684Z,3.50
2023-05-05T04:13:04.303Z,9.13
2023-05-05T04:16:08.819Z,7.10
2023-05-05T04:19:13.155Z,4.22
2023-05-05T04:22:16.119Z,4.40
2023-05-05T04:25:18.701Z,3.35
2023-05-05T04:28:22.235Z,4.20
2023-05-05T04:31:24.846Z,3.50
2023-05-05T04:34:27.557Z,3.72
2023-05-05T04:37:30.271Z,3.72
2023-05-05T04:40:33.302Z,4.75
2023-05-05T04:43:35.877Z,3.87
2023-05-05T04:46:38.525Z,3.42
2023-05-05T04:49:41.030Z,20.77
2023-05-05T04:52:43.748Z,15.85
2023-05-05T04:55:46.124Z,8.15
2023-05-05T04:58:50.124Z,4.70
2023-05-05T05:01:52.661Z,3.97
2023-05-05T05:04:55.265Z,4.10
2023-05-05T05:07:57.984Z,3.92
2023-05-05T05:11:00.802Z,4.07
2023-05-05T05:14:03.164Z,4.05
2023-05-05T05:17:08.775Z,4.00
2023-05-05T05:20:11.650Z,3.20
2023-05-05T05:23:17.017Z,3.80
2023-05-05T05:26:19.556Z,3.62
2023-05-05T05:29:22.742Z,3.80
2023-05-05T05:32:25.119Z,4.10
2023-05-05T05:35:28.084Z,3.67
2023-05-05T05:38:30.415Z,4.12
2023-05-05T05:41:33.507Z,4.20
2023-05-05T05:44:35.849Z,3.90
2023-05-05T05:47:38.608Z,3.87
2023-05-05T05:50:41.028Z,4.00
2023-05-05T05:53:44.405Z,3.95
2023-05-05T05:56:46.913Z,4.15
2023-05-05T05:59:49.722Z,3.53
2023-05-05T06:02:52.473Z,3.67
2023-05-05T06:05:56.805Z,4.30
2023-05-05T06:12:03.767Z,4.37
2023-05-05T06:15:07.108Z,4.28
2023-05-05T06:18:09.950Z,4.13
2023-05-05T06:21:13.368Z,4.75
2023-05-05T06:27:18.734Z,4.15
2023-05-05T06:30:21.604Z,3.55
2023-05-05T06:33:23.891Z,3.45
2023-05-05T06:36:26.485Z,4.57
2023-05-05T06:39:28.859Z,3.60
2023-05-05T06:42:32.229Z,3.65
2023-05-05T06:45:34.827Z,3.55
2023-05-05T06:48:37.546Z,3.83
2023-05-05T06:51:42.158Z,3.33
2023-05-05T06:54:45.599Z,3.33
2023-05-05T06:57:47.932Z,3.15
2023-05-05T07:00:50.609Z,3.47
2023-05-05T07:03:53.268Z,3.70
2023-05-05T07:06:56.640Z,3.07
2023-05-05T07:09:59.000Z,3.33
2023-05-05T07:13:01.819Z,3.72
2023-05-05T07:16:04.842Z,3.17
2023-05-05T07:19:10.090Z,3.42
2023-05-05T07:22:12.525Z,3.25
2023-05-05T07:25:15.144Z,3.00
2023-05-05T07:28:18.032Z,3.40
2023-05-05T07:31:22.042Z,3.67
2023-05-05T07:34:24.479Z,3.42
2023-05-05T07:37:27.132Z,3.55
2023-05-05T07:40:35.471Z,3.87
2023-05-05T07:43:39.611Z,3.72
2023-05-05T07:46:42.116Z,3.25
2023-05-05T07:49:44.765Z,3.70
2023-05-05T07:52:51.886Z,4.07
2023-05-05T07:56:02.000Z,3.67
2023-05-05T07:59:22.774Z,3.97
2023-05-05T08:02:25.671Z,3.90
2023-05-05T08:05:28.333Z,3.90
2023-05-05T08:08:30.650Z,4.07
2023-05-05T08:11:33.279Z,3.50
2023-05-05T08:14:36.333Z,3.40
2023-05-05T08:17:50.604Z,3.20
2023-05-05T08:20:53.525Z,3.42
2023-05-05T08:23:56.208Z,3.70
2023-05-05T08:27:01.653Z,3.80
2023-05-05T08:30:04.813Z,3.42
2023-05-05T08:33:07.227Z,3.22
2023-05-05T08:36:09.994Z,3.63
2023-05-05T08:39:14.944Z,3.70
2023-05-05T08:42:32.816Z,3.80
2023-05-05T08:45:42.173Z,3.70
2023-05-05T08:48:46.038Z,3.65
2023-05-05T08:54:57.269Z,3.55
2023-05-05T08:58:06.198Z,4.07
2023-05-05T09:01:10.305Z,4.10
2023-05-05T09:04:13.900Z,4.20
2023-05-05T09:07:16.767Z,3.92
2023-05-05T09:10:23.165Z,3.67
2023-05-05T09:13:30.397Z,3.40
2023-05-05T09:16:35.171Z,8.27
2023-05-05T09:20:14.227Z,4.60
2023-05-05T09:23:19.733Z,4.00
2023-05-05T09:26:26.083Z,3.25
2023-05-05T09:29:28.975Z,3.25
2023-05-05T09:32:45.939Z,3.90
2023-05-05T09:35:56.120Z,3.85
2023-05-05T09:39:06.257Z,3.70
2023-05-05T09:42:18.851Z,4.22
2023-05-05T09:45:27.482Z,3.60
2023-05-05T09:48:32.395Z,3.60
2023-05-05T09:51:37.438Z,3.80
2023-05-05T09:54:44.630Z,3.53
2023-05-05T09:57:47.641Z,3.58
2023-05-05T10:00:51.152Z,3.20
2023-05-05T10:03:55.225Z,3.70
2023-05-05T10:07:03.467Z,3.83
2023-05-05T10:10:08.346Z,3.58
2023-05-05T10:13:12.049Z,4.22
2023-05-05T10:16:15.457Z,3.80
2023-05-05T10:19:24.828Z,3.60
2023-05-05T10:22:32.849Z,3.75
2023-05-05T10:25:42.167Z,3.87
2023-05-05T10:28:50.958Z,3.58
2023-05-05T10:31:54.449Z,3.55
2023-05-05T10:35:04.030Z,4.00
2023-05-05T10:38:12.095Z,4.15
2023-05-05T10:41:16.123Z,3.53
2023-05-05T10:44:19.439Z,4.05
2023-05-05T10:47:24.029Z,4.18
2023-05-05T10:50:41.729Z,4.32
2023-05-05T10:54:06.141Z,4.75
2023-05-05T10:57:10.904Z,4.05
2023-05-05T11:00:39.669Z,4.43
2023-05-05T11:03:42.411Z,5.00
2023-05-05T11:07:13.465Z,4.90
2023-05-05T11:10:20.662Z,4.25
2023-05-05T11:13:23.827Z,4.57
2023-05-05T11:16:52.876Z,4.30
2023-05-05T11:19:55.767Z,4.57
2023-05-05T11:23:04.195Z,3.80
2023-05-05T11:26:07.349Z,4.20
2023-05-05T11:29:09.845Z,3.97
2023-05-05T11:32:14.366Z,3.97
2023-05-05T11:35:16.923Z,4.70
2023-05-05T11:38:24.559Z,4.30
2023-05-05T11:41:32.701Z,3.80
2023-05-05T11:44:46.157Z,3.80
2023-05-05T11:47:48.781Z,3.67
2023-05-05T11:50:54.862Z,4.10
2023-05-05T11:53:59.156Z,3.90
2023-05-05T11:57:05.631Z,3.83
2023-05-05T12:00:11.953Z,4.30
2023-05-05T12:03:15.221Z,3.70
2023-05-05T12:06:28.553Z,3.80
2023-05-05T12:09:31.767Z,4.03
2023-05-05T12:12:38.531Z,3.70
2023-05-05T12:15:43.653Z,3.50
2023-05-05T12:18:48.177Z,3.95
2023-05-05T12:21:56.089Z,4.40
2023-05-05T12:25:01.580Z,4.80
2023-05-05T12:28:14.571Z,3.47
2023-05-05T12:31:19.640Z,4.70
2023-05-05T12:34:27.212Z,4.20
2023-05-05T12:37:31.538Z,3.87
2023-05-05T12:43:57.468Z,3.87
2023-05-05T12:47:00.545Z,3.60
2023-05-05T12:50:03.268Z,4.10
2023-05-05T12:53:07.139Z,3.65
2023-05-05T12:56:32.187Z,4.05
2023-05-05T12:59:34.842Z,4.07
2023-05-05T13:02:37.231Z,3.97
2023-05-05T13:05:41.187Z,3.45
2023-05-05T13:08:43.856Z,3.53
2023-05-05T13:11:46.517Z,3.20
2023-05-05T13:14:48.925Z,3.53
2023-05-05T13:17:58.260Z,4.47
2023-05-05T13:21:00.754Z,3.40
2023-05-05T13:27:09.220Z,3.08
2023-05-05T13:30:12.590Z,3.47
2023-05-05T13:33:14.962Z,3.60
2023-05-05T13:36:17.608Z,3.87
2023-05-05T13:39:20.034Z,3.60
2023-05-05T13:42:22.654Z,3.03
2023-05-05T13:45:25.140Z,3.87
2023-05-05T13:48:27.832Z,3.45
2023-05-05T13:51:30.220Z,3.90
2023-05-05T13:54:33.277Z,4.30
2023-05-05T13:57:35.724Z,3.60
2023-05-05T14:00:38.746Z,4.22
2023-05-05T14:03:41.469Z,4.45
2023-05-05T14:06:43.871Z,4.00
2023-05-05T14:09:46.563Z,4.20
2023-05-05T14:12:49.019Z,4.03
2023-05-05T14:15:52.805Z,4.12
2023-05-05T14:21:57.678Z,4.00
2023-05-05T14:25:00.054Z,3.87
2023-05-05T14:28:03.772Z,3.60
2023-05-05T14:31:06.564Z,3.62
2023-05-05T14:34:09.329Z,4.20
2023-05-05T14:37:11.907Z,3.15
2023-05-05T14:40:14.618Z,3.30
2023-05-05T14:43:17.098Z,3.53
2023-05-05T14:46:19.938Z,3.30
2023-05-05T14:49:22.379Z,3.30
2023-05-05T14:52:25.018Z,3.90
2023-05-05T14:55:27.616Z,3.37
2023-05-05T14:58:31.188Z,3.17
2023-05-05T15:01:33.607Z,4.07
2023-05-05T15:04:36.343Z,3.50
2023-05-05T15:07:40.054Z,3.87
2023-05-05T15:10:42.757Z,3.92
2023-05-05T15:13:45.196Z,3.53
2023-05-05T15:16:47.868Z,4.47
2023-05-05T15:19:50.314Z,4.03
2023-05-05T15:22:52.968Z,4.03
2023-05-05T15:25:55.376Z,3.72
2023-05-05T15:28:58.023Z,3.30
2023-05-05T15:32:00.615Z,7.62
2023-05-05T15:35:03.376Z,3.67
2023-05-05T15:38:05.831Z,3.60
2023-05-05T15:41:08.641Z,3.30
2023-05-05T15:44:14.220Z,3.35
2023-05-05T15:47:17.782Z,3.03
2023-05-05T15:50:20.335Z,3.22
2023-05-05T15:53:23.152Z,3.53
2023-05-05T15:56:27.374Z,3.40
2023-05-05T15:59:30.151Z,3.33
2023-05-05T16:02:32.673Z,3.60
2023-05-05T16:05:35.588Z,3.47
2023-05-05T16:08:38.362Z,3.55
2023-05-05T16:11:41.021Z,5.10
2023-05-05T16:14:43.355Z,3.00
2023-05-05T16:17:46.093Z,3.30
2023-05-05T16:20:48.562Z,3.70
2023-05-05T16:23:51.453Z,3.67
2023-05-05T16:26:53.879Z,3.43
2023-05-05T16:29:58.509Z,3.50
2023-05-05T16:33:02.170Z,3.42
2023-05-05T16:36:05.411Z,3.47
2023-05-05T16:39:07.893Z,3.70
2023-05-05T16:42:10.913Z,3.30
2023-05-05T16:45:13.386Z,3.83
2023-05-05T16:48:18.617Z,3.30
2023-05-05T16:51:21.079Z,3.47
2023-05-05T16:54:23.765Z,3.70
2023-05-05T16:57:26.178Z,3.35
2023-05-05T17:00:29.114Z,3.30
2023-05-05T17:03:32.173Z,3.73
2023-05-05T17:06:34.992Z,3.42
2023-05-05T17:09:37.835Z,3.60
2023-05-05T17:12:42.053Z,3.42
2023-05-05T17:15:44.560Z,3.67
2023-05-05T17:18:47.351Z,3.42
2023-05-05T17:21:54.201Z,3.47
2023-05-05T17:24:57.112Z,3.30
2023-05-05T17:28:00.585Z,3.30
2023-05-05T17:31:03.378Z,3.53
2023-05-05T17:34:19.328Z,3.20
2023-05-05T17:37:22.171Z,3.70
2023-05-05T17:40:24.708Z,3.10
2023-05-05T17:43:27.518Z,3.00
2023-05-05T17:46:31.790Z,3.67
2023-05-05T17:49:34.967Z,3.40
2023-05-05T17:52:37.398Z,3.37
2023-05-05T17:55:44.793Z,3.43
2023-05-05T17:58:49.446Z,3.50
2023-05-05T18:01:52.188Z,3.70
2023-05-05T18:04:55.013Z,4.10
2023-05-05T18:07:57.521Z,3.90
2023-05-05T18:11:00.413Z,3.75
2023-05-05T18:14:02.923Z,3.87
2023-05-05T18:17:05.858Z,3.75
2023-05-05T18:20:08.996Z,3.67
2023-05-05T18:23:11.730Z,3.80
2023-05-05T18:26:16.562Z,4.00
2023-05-05T18:29:22.506Z,3.85
2023-05-05T18:32:26.839Z,4.15
2023-05-05T18:35:32.492Z,4.25
2023-05-05T18:38:37.544Z,4.85
2023-05-05T18:41:54.558Z,4.53
2023-05-05T18:45:46.150Z,4.57
2023-05-05T18:49:31.138Z,4.53
2023-05-05T18:52:49.657Z,5.28
2023-05-05T18:56:01.446Z,4.75
2023-05-05T18:59:19.633Z,6.03
2023-05-05T19:02:43.090Z,4.95
2023-05-05T19:05:47.440Z,5.03
2023-05-05T19:08:50.241Z,5.87
2023-05-05T19:11:54.121Z,4.75
2023-05-05T19:18:02.709Z,5.53
2023-05-05T19:21:11.226Z,5.45
2023-05-05T19:24:15.346Z,5.32
2023-05-05T19:27:18.027Z,5.55
2023-05-05T19:30:21.966Z,5.93
2023-05-05T19:36:27.757Z,6.35
2023-05-05T19:39:30.224Z,6.12
2023-05-05T19:42:32.908Z,7.80
2023-05-05T19:45:35.589Z,6.32
2023-05-05T19:48:38.292Z,6.93
2023-05-05T19:51:42.031Z,7.65
2023-05-05T19:54:44.716Z,7.25
2023-05-05T19:57:47.209Z,6.35
2023-05-05T20:00:49.865Z,6.45
2023-05-05T20:03:55.797Z,6.05
2023-05-05T20:06:58.302Z,5.75
2023-05-05T20:10:01.056Z,6.50
2023-05-05T20:13:03.560Z,7.45
2023-05-05T20:16:07.522Z,6.82
2023-05-05T20:19:10.045Z,6.28
2023-05-05T20:22:12.763Z,6.90
2023-05-05T20:25:18.537Z,6.70
2023-05-05T20:28:23.904Z,6.40
2023-05-05T20:31:26.349Z,6.00
2023-05-05T20:34:29.104Z,5.35
2023-05-05T20:37:33.904Z,6.00
2023-05-05T20:40:37.105Z,5.95
2023-05-05T20:43:41.710Z,5.87
2023-05-05T20:46:44.478Z,11.85
2023-05-05T20:49:46.923Z,8.27
2023-05-05T20:52:49.683Z,7.30
2023-05-05T20:55:52.005Z,7.12
2023-05-05T20:58:55.045Z,6.75
2023-05-05T21:01:58.257Z,6.77
2023-05-05T21:05:05.593Z,6.57
2023-05-05T21:08:11.101Z,6.25
2023-05-05T21:11:15.204Z,6.68
2023-05-05T21:14:17.587Z,6.75
2023-05-05T21:17:20.489Z,6.50
2023-05-05T21:20:23.229Z,6.85
2023-05-05T21:23:26.189Z,7.47
2023-05-05T21:26:28.727Z,7.20
2023-05-05T21:29:37.652Z,7.22
2023-05-05T21:32:40.462Z,7.00
2023-05-05T21:35:43.526Z,6.80
2023-05-05T21:38:46.022Z,6.43
2023-05-05T21:41:48.659Z,5.85
2023-05-05T21:44:51.022Z,6.80
2023-05-05T21:47:53.719Z,6.35
2023-05-05T21:50:56.074Z,6.22
2023-05-05T21:53:58.892Z,5.60
2023-05-05T21:57:01.584Z,6.03
2023-05-05T22:00:05.981Z,5.93
2023-05-05T22:03:14.625Z,6.43
2023-05-05T22:06:17.446Z,5.70
2023-05-05T22:09:19.736Z,6.12
2023-05-05T22:12:22.509Z,7.10
2023-05-05T22:15:29.977Z,7.53
2023-05-05T22:18:36.113Z,7.22
2023-05-05T22:21:38.453Z,7.03
2023-05-05T22:24:41.582Z,7.20
2023-05-05T22:27:43.943Z,6.68
2023-05-05T22:30:46.748Z,6.40
2023-05-05T22:33:50.537Z,6.78
2023-05-05T22:36:53.121Z,6.95
2023-05-05T22:39:55.531Z,6.57
2023-05-05T22:42:58.849Z,6.70
2023-05-05T22:46:01.220Z,6.53
2023-05-05T22:49:03.889Z,6.87
2023-05-05T22:52:06.356Z,6.78
2023-05-05T22:55:09.351Z,6.97
2023-05-05T22:58:11.944Z,7.25
2023-05-05T23:01:14.576Z,6.50
2023-05-05T23:04:17.085Z,6.78
2023-05-05T23:07:19.881Z,7.15
2023-05-05T23:10:22.232Z,6.62
2023-05-05T23:13:25.064Z,6.75
2023-05-05T23:16:27.490Z,6.80
2023-05-05T23:19:32.412Z,6.55
2023-05-05T23:22:34.748Z,6.50
2023-05-05T23:25:37.420Z,6.18
2023-05-05T23:28:39.746Z,5.82
2023-05-05T23:31:42.538Z,6.43
2023-05-05T23:34:44.990Z,5.87
2023-05-05T23:37:47.683Z,5.90
2023-05-05T23:40:49.972Z,6.65
2023-05-05T23:43:52.643Z,6.70
2023-05-05T23:46:55.166Z,5.65
2023-05-05T23:49:58.153Z,5.75
2023-05-05T23:53:00.615Z,6.28
2023-05-05T23:56:03.361Z,6.22
2023-05-05T23:59:06.247Z,6.25
